Time;durP1;ratioP1;P1;durP2;ratioP2;P2;SDS_P1;SDS_P2;PMS_P1;PMS_P2;Temp;Humidity;BMP_temperature;BMP_pressure;BME280_temperature;BME280_humidity;BME280_pressure;Samples;Min_cycle;Max_cycle;Signal;HPM_P1;HPM_P2
2023/10/20 00:01:34;;;;;;;26.10;16.25;;;;;;;14.24;100.00;98508.22;5033859;28;20541;-68
2023/10/20 00:04:02;;;;;;;24.25;15.82;;;;;;;14.21;100.00;98496.16;5031609;28;20376;-68
2023/10/20 00:06:27;;;;;;;21.27;15.15;;;;;;;14.21;100.00;98500.72;5026495;28;20536;-69
2023/10/20 00:08:53;;;;;;;21.42;15.77;;;;;;;14.18;100.00;98506.56;5024002;28;20038;-68
2023/10/20 00:11:18;;;;;;;21.48;16.58;;;;;;;14.19;100.00;98513.50;5016561;28;20030;-68
2023/10/20 00:13:43;;;;;;;21.65;15.40;;;;;;;14.17;100.00;98507.59;5029273;28;20094;-68
2023/10/20 00:16:09;;;;;;;20.95;15.82;;;;;;;14.18;100.00;98507.34;5024048;28;20121;-68
2023/10/20 00:18:35;;;;;;;19.33;15.27;;;;;;;14.18;100.00;98503.88;5035685;28;20430;-68
2023/10/20 00:21:00;;;;;;;20.90;16.15;;;;;;;14.18;100.00;98503.88;5029985;28;20030;-68
2023/10/20 00:23:25;;;;;;;19.52;15.18;;;;;;;14.18;100.00;98503.88;5023083;28;20476;-68
2023/10/20 00:25:51;;;;;;;21.55;16.05;;;;;;;14.19;100.00;98508.16;5030855;28;20402;-68
2023/10/20 00:28:16;;;;;;;18.77;15.57;;;;;;;14.10;100.00;98478.41;5027861;28;20037;-68
2023/10/20 00:30:42;;;;;;;19.67;16.10;;;;;;;14.18;100.00;98487.88;5013662;28;20034;-68
2023/10/20 00:33:07;;;;;;;22.67;16.10;;;;;;;14.19;100.00;98484.13;5019053;28;20498;-68
2023/10/20 00:35:33;;;;;;;20.52;16.40;;;;;;;14.18;100.00;98466.50;5022794;28;20475;-68
2023/10/20 00:37:59;;;;;;;18.90;15.98;;;;;;;14.15;100.00;98469.66;5032962;28;20044;-68
2023/10/20 00:40:25;;;;;;;22.27;16.63;;;;;;;14.16;100.00;98461.41;5019957;28;20034;-68
2023/10/20 00:42:51;;;;;;;23.58;17.30;;;;;;;14.15;100.00;98453.63;5024462;28;21055;-68
2023/10/20 00:45:16;;;;;;;22.45;17.45;;;;;;;14.14;100.00;98449.38;5033238;28;20042;-68
2023/10/20 00:47:44;;;;;;;20.50;16.23;;;;;;;14.14;100.00;98436.81;5021812;28;20033;-68
2023/10/20 00:50:14;;;;;;;22.48;17.98;;;;;;;14.13;100.00;98423.72;5026796;28;20032;-68
2023/10/20 00:52:47;;;;;;;21.02;17.50;;;;;;;14.10;100.00;98424.25;5018591;28;20506;-68
2023/10/20 00:55:14;;;;;;;22.52;16.80;;;;;;;14.08;100.00;98427.16;5035222;28;20100;-68
2023/10/20 00:57:42;;;;;;;21.60;16.85;;;;;;;14.06;100.00;98413.25;5022083;28;20411;-68
2023/10/20 01:00:09;;;;;;;23.02;16.85;;;;;;;14.06;100.00;98412.47;5023220;28;20025;-68
2023/10/20 01:02:36;;;;;;;26.10;18.00;;;;;;;14.04;100.00;98403.91;5023020;28;20034;-68
2023/10/20 01:05:03;;;;;;;27.88;20.02;;;;;;;14.03;100.00;98397.75;5029874;28;20059;-68
2023/10/20 01:07:31;;;;;;;25.20;21.30;;;;;;;14.04;100.00;98401.22;5022034;28;20083;-68
2023/10/20 01:10:01;;;;;;;25.25;18.15;;;;;;;14.03;100.00;98391.63;5026024;28;20396;-68
2023/10/20 01:12:26;;;;;;;;;;;;;;;14.06;100.00;98391.09;5028831;28;20029;-68
2023/10/20 01:14:52;;;;;;;24.35;18.92;;;;;;;14.03;100.00;98386.28;5029793;28;19913;-68
2023/10/20 01:17:17;;;;;;;27.55;19.92;;;;;;;14.01;100.00;98377.72;5019511;28;20528;-68
2023/10/20 01:19:44;;;;;;;24.80;18.65;;;;;;;13.99;100.00;98375.31;5026113;28;20067;-68
2023/10/20 01:22:09;;;;;;;23.35;18.17;;;;;;;13.94;100.00;98365.41;5029286;28;20108;-68
2023/10/20 01:24:34;;;;;;;19.98;16.92;;;;;;;13.97;100.00;98357.94;5026849;28;20159;-68
2023/10/20 01:26:59;;;;;;;21.70;17.50;;;;;;;13.93;100.00;98344.31;5022184;28;20038;-68
2023/10/20 01:29:25;;;;;;;22.40;17.38;;;;;;;13.91;100.00;98341.91;5021066;28;20033;-69
2023/10/20 01:31:50;;;;;;;21.65;17.35;;;;;;;13.91;100.00;98341.91;5030951;28;20504;-68
2023/10/20 01:34:16;;;;;;;21.92;17.80;;;;;;;13.89;100.00;98340.53;5017925;28;20034;-68
2023/10/20 01:36:41;;;;;;;27.58;19.17;;;;;;;13.87;100.00;98335.44;5022806;28;20104;-69
2023/10/20 01:39:08;;;;;;;28.55;21.88;;;;;;;13.87;100.00;98342.63;5015341;28;20022;-68
2023/10/20 01:41:33;;;;;;;29.00;24.48;;;;;;;13.87;100.00;98346.09;5023951;28;20364;-68
2023/10/20 01:43:58;;;;;;;27.77;22.38;;;;;;;13.85;100.00;98350.88;5024219;28;20033;-68
2023/10/20 01:46:23;;;;;;;24.50;19.60;;;;;;;13.87;100.00;98355.97;5021282;28;20100;-68
2023/10/20 01:48:49;;;;;;;28.30;20.13;;;;;;;13.85;100.00;98350.88;5020537;28;20052;-69
2023/10/20 01:51:15;;;;;;;27.45;21.70;;;;;;;13.81;100.00;98347.13;5017986;28;20033;-68
2023/10/20 01:53:40;;;;;;;25.63;20.25;;;;;;;13.84;100.00;98340.47;5018162;28;20431;-68
2023/10/20 01:56:05;;;;;;;23.00;18.52;;;;;;;13.81;100.00;98330.31;5022848;28;20036;-68
2023/10/20 01:58:31;;;;;;;23.35;18.30;;;;;;;13.82;100.00;98326.56;5031735;28;20029;-68
2023/10/20 02:00:57;;;;;;;23.00;17.83;;;;;;;13.80;100.00;98318.03;5023221;28;20025;-68
2023/10/20 02:03:22;;;;;;;26.90;18.35;;;;;;;13.79;100.00;98319.09;5031040;28;20025;-68
2023/10/20 02:05:48;;;;;;;24.55;18.77;;;;;;;13.77;100.00;98321.22;5027962;28;20602;-68
2023/10/20 02:08:13;;;;;;;23.85;18.05;;;;;;;13.74;100.00;98303.84;5020747;28;20057;-68
2023/10/20 02:10:40;;;;;;;25.50;18.85;;;;;;;13.71;100.00;98287.53;5022955;28;20025;-68
2023/10/20 02:13:05;;;;;;;25.35;19.52;;;;;;;13.72;100.00;98283.81;5024808;28;20022;-68
2023/10/20 02:15:31;;;;;;;28.88;19.20;;;;;;;13.72;100.00;98275.81;5016795;28;20029;-68
2023/10/20 02:17:56;;;;;;;24.63;19.90;;;;;;;13.69;100.00;98269.13;5016087;28;20029;-68
2023/10/20 02:20:23;;;;;;;28.33;22.13;;;;;;;13.70;100.00;98268.06;5022849;28;20025;-68
2023/10/20 02:22:50;;;;;;;33.65;23.73;;;;;;;13.67;100.00;98271.25;5021892;28;20026;-68
2023/10/20 02:25:16;;;;;;;35.70;25.75;;;;;;;13.66;100.00;98277.66;5031256;28;20108;-68
2023/10/20 02:27:42;;;;;;;31.48;24.10;;;;;;;13.70;100.00;98270.75;5013057;28;20033;-68
2023/10/20 02:30:15;;;;;;;37.45;27.25;;;;;;;13.68;100.00;98267.53;5026350;28;20025;-68
2023/10/20 02:32:41;;;;;;;30.60;20.90;;;;;;;13.64;100.00;98253.09;5026198;28;20051;-68
2023/10/20 02:35:07;;;;;;;28.67;20.23;;;;;;;13.65;100.00;98244.03;5029758;28;20022;-68
2023/10/20 02:37:33;;;;;;;26.33;18.95;;;;;;;13.63;100.00;98238.16;5025109;28;20116;-68
2023/10/20 02:39:58;;;;;;;24.45;19.48;;;;;;;13.62;100.00;98234.69;5019465;28;20750;-68
2023/10/20 02:42:24;;;;;;;28.13;20.27;;;;;;;13.65;100.00;98225.38;5015000;28;20056;-68
2023/10/20 02:44:49;;;;;;;28.75;20.52;;;;;;;13.64;100.00;98218.41;5017042;28;20369;-68
2023/10/20 02:47:14;;;;;;;26.88;19.52;;;;;;;13.62;100.00;98210.69;5020484;28;20021;-68
2023/10/20 02:49:40;;;;;;;26.00;19.23;;;;;;;13.63;100.00;98209.63;5010277;28;20293;-68
2023/10/20 02:52:05;;;;;;;26.73;20.10;;;;;;;13.63;100.00;98208.81;5013933;28;20025;-68
2023/10/20 02:54:30;;;;;;;31.15;23.55;;;;;;;13.61;100.00;98201.06;5014816;28;20122;-68
2023/10/20 02:56:56;;;;;;;30.88;24.45;;;;;;;13.61;100.00;98197.59;5012529;28;20025;-68
2023/10/20 02:59:21;;;;;;;30.48;22.38;;;;;;;13.61;100.00;98179.72;5016422;28;20025;-68
2023/10/20 03:01:47;;;;;;;30.98;23.98;;;;;;;13.61;100.00;98181.59;5019426;28;20068;-68
2023/10/20 03:04:12;;;;;;;30.52;23.25;;;;;;;13.61;100.00;98176.25;5012634;28;20026;-68
2023/10/20 03:06:37;;;;;;;31.73;21.95;;;;;;;13.61;100.00;98176.25;5026294;28;20128;-69
2023/10/20 03:09:03;;;;;;;28.33;20.00;;;;;;;13.61;100.00;98170.94;5024217;28;20021;-68
2023/10/20 03:11:28;;;;;;;26.85;20.10;;;;;;;13.60;100.00;98162.13;5026193;28;20053;-68
2023/10/20 03:13:54;;;;;;;28.13;19.75;;;;;;;13.61;100.00;98152.25;5032037;28;20037;-68
2023/10/20 03:16:19;;;;;;;25.90;19.58;;;;;;;13.60;100.00;98142.66;5026645;28;20037;-68
2023/10/20 03:18:44;;;;;;;24.67;18.90;;;;;;;13.61;100.00;98149.59;5029715;28;20017;-68
2023/10/20 03:21:10;;;;;;;26.58;19.65;;;;;;;13.59;100.00;98157.84;5025111;28;20029;-68
2023/10/20 03:23:36;;;;;;;26.48;20.23;;;;;;;13.58;100.00;98155.41;5027132;28;20025;-68
2023/10/20 03:26:02;;;;;;;27.42;19.65;;;;;;;13.58;100.00;98150.09;5019671;28;21133;-68
2023/10/20 03:28:28;;;;;;;26.88;20.67;;;;;;;13.61;100.00;98157.59;5023206;28;20124;-68
2023/10/20 03:30:53;;;;;;;32.25;22.15;;;;;;;13.60;100.00;98148.00;5023594;28;20021;-68
2023/10/20 03:33:19;;;;;;;31.02;23.83;;;;;;;13.60;100.00;98148.78;5021965;28;20025;-68
2023/10/20 03:35:44;;;;;;;29.27;23.33;;;;;;;13.60;100.00;98137.31;5022550;28;20030;-68
2023/10/20 03:38:10;;;;;;;32.20;24.55;;;;;;;13.59;100.00;98135.72;5019526;28;20060;-68
2023/10/20 03:40:42;;;;;;;29.13;23.05;;;;;;;13.59;100.00;98127.72;5023602;28;20096;-68
2023/10/20 03:43:08;;;;;;;27.02;22.80;;;;;;;13.59;100.00;98106.38;5022520;28;20031;-68
2023/10/20 03:45:56;;;;;;;28.58;20.52;;;;;;;13.58;100.00;98113.56;5029185;28;20040;-68
2023/10/20 03:48:23;;;;;;;26.42;19.33;;;;;;;13.57;100.00;98111.16;5017511;28;20117;-68
2023/10/20 03:50:51;;;;;;;27.27;19.52;;;;;;;13.59;100.00;98114.38;5017753;28;20065;-68
2023/10/20 03:53:23;;;;;;;25.60;19.38;;;;;;;13.58;100.00;98128.75;5014970;28;20032;-68
2023/10/20 03:56:09;;;;;;;25.02;19.52;;;;;;;13.58;100.00;98139.41;5014586;28;20080;-68
2023/10/20 03:58:36;;;;;;;30.35;20.30;;;;;;;13.58;100.00;98129.56;5015231;28;20099;-68
2023/10/20 04:01:02;;;;;;;25.40;19.85;;;;;;;13.57;100.00;98089.81;5013314;28;20507;-67
2023/10/20 04:03:30;;;;;;;28.10;19.40;;;;;;;13.58;100.00;98092.22;5024324;28;20036;-68
2023/10/20 04:05:56;;;;;;;26.33;20.48;;;;;;;13.57;100.00;98093.28;5009418;28;20153;-68
2023/10/20 04:08:22;;;;;;;30.33;21.35;;;;;;;13.57;100.00;98103.94;5017706;28;20458;-68
2023/10/20 04:10:48;;;;;;;31.52;23.50;;;;;;;13.57;100.00;98095.94;5019898;28;20032;-68
2023/10/20 04:13:14;;;;;;;35.25;24.02;;;;;;;13.57;100.00;98093.28;5023703;28;20025;-68
2023/10/20 04:15:40;;;;;;;30.23;22.65;;;;;;;13.58;100.00;98094.09;5018917;28;20017;-68
2023/10/20 04:18:06;;;;;;;33.72;25.73;;;;;;;13.57;100.00;98071.16;5021871;28;20017;-68
2023/10/20 04:20:38;;;;;;;31.65;25.33;;;;;;;13.56;100.00;98065.00;5017267;28;20072;-68
2023/10/20 04:23:04;;;;;;;32.50;22.02;;;;;;;13.56;100.00;98061.53;5013651;28;20026;-68
2023/10/20 04:25:33;;;;;;;29.23;20.83;;;;;;;13.54;100.00;98053.81;5018088;28;20032;-68
2023/10/20 04:28:11;;;;;;;33.15;21.20;;;;;;;13.56;100.00;98051.69;5025961;28;20100;-67
2023/10/20 04:44:58;;;;;;;32.55;23.98;;;;;;;13.56;100.00;98024.22;5022746;28;20044;-67
2023/10/20 04:50:34;;;;;;;33.20;24.90;;;;;;;13.56;100.00;98018.88;5035593;28;20044;-68
2023/10/20 04:57:53;;;;;;;34.33;25.67;;;;;;;13.56;100.00;97976.22;5019816;28;20029;-68
2023/10/20 05:05:39;;;;;;;32.65;25.75;;;;;;;13.57;100.00;97972.50;5028309;28;20109;-68
2023/10/20 05:08:17;;;;;;;33.05;26.77;;;;;;;13.58;100.00;97966.91;5015072;28;20018;-68
2023/10/20 05:10:43;;;;;;;36.30;27.27;;;;;;;13.58;100.00;97950.91;5016814;28;20040;-68
2023/10/20 05:13:08;;;;;;;34.20;27.02;;;;;;;13.59;100.00;97943.72;5023811;28;20542;-68
2023/10/20 05:15:38;;;;;;;37.05;27.33;;;;;;;13.58;100.00;97940.22;5025304;28;20538;-68
2023/10/20 05:18:11;;;;;;;37.00;27.85;;;;;;;13.59;100.00;97941.06;5029070;28;20044;-68
2023/10/20 05:20:37;;;;;;;35.50;28.05;;;;;;;13.59;100.00;97947.19;5015476;28;20083;-68
2023/10/20 05:23:02;;;;;;;35.25;27.67;;;;;;;13.60;100.00;97943.47;5026634;28;20465;-67
2023/10/20 05:25:28;;;;;;;36.08;28.75;;;;;;;13.60;100.00;97940.00;5029658;28;20108;-68
2023/10/20 05:27:54;;;;;;;34.33;28.25;;;;;;;13.61;100.00;97930.94;5019540;28;20037;-68
2023/10/20 05:30:19;;;;;;;37.40;28.13;;;;;;;13.67;100.00;97934.41;5026010;28;20044;-68
2023/10/20 05:32:46;;;;;;;34.70;29.00;;;;;;;13.64;100.00;97923.22;5027955;28;20406;-67
2023/10/20 05:35:11;;;;;;;35.33;28.50;;;;;;;13.65;100.00;97932.03;5032052;28;20464;-68
2023/10/20 05:37:36;;;;;;;39.65;28.75;;;;;;;13.65;100.00;97940.00;5026015;28;20120;-68
2023/10/20 05:40:03;;;;;;;36.97;28.98;;;;;;;13.66;100.00;97938.16;5027303;28;20085;-67
2023/10/20 05:42:29;;;;;;;35.30;28.52;;;;;;;13.66;100.00;97946.16;5023000;28;20037;-68
2023/10/20 05:45:09;;;;;;;33.85;28.33;;;;;;;13.66;100.00;97943.47;5026024;28;20025;-68
2023/10/20 05:47:35;;;;;;;33.63;27.90;;;;;;;13.65;100.00;97948.00;5024070;28;20079;-67
2023/10/20 05:50:01;;;;;;;33.95;28.73;;;;;;;13.65;100.00;97937.34;5015168;28;20026;-68
2023/10/20 05:52:26;;;;;;;35.25;29.52;;;;;;;13.65;100.00;97926.69;5029670;28;20029;-67
2023/10/20 05:54:53;;;;;;;35.22;28.13;;;;;;;13.66;100.00;97935.47;5014119;28;20601;-67
2023/10/20 05:57:19;;;;;;;36.55;29.63;;;;;;;13.64;100.00;97935.75;5023556;28;20068;-68
2023/10/20 05:59:46;;;;;;;33.15;28.30;;;;;;;13.67;100.00;97935.22;5016697;28;20062;-68
2023/10/20 06:02:12;;;;;;;33.85;28.05;;;;;;;13.67;100.00;97929.88;5022383;28;20448;-68
2023/10/20 06:04:37;;;;;;;32.20;28.17;;;;;;;13.68;100.00;97922.69;5029925;28;20025;-67
2023/10/20 06:07:03;;;;;;;35.83;28.73;;;;;;;13.68;100.00;97920.81;5022508;28;20030;-68
2023/10/20 06:09:29;;;;;;;32.22;28.00;;;;;;;13.68;100.00;97915.50;5015432;28;20037;-68
2023/10/20 06:11:54;;;;;;;31.73;28.30;;;;;;;13.68;100.00;97899.50;5026344;28;20418;-68
2023/10/20 06:14:23;;;;;;;33.58;27.77;;;;;;;13.69;100.00;97906.44;5021610;28;20491;-68
2023/10/20 06:16:49;;;;;;;34.28;28.13;;;;;;;13.68;100.00;97901.34;5018208;28;20022;-68
2023/10/20 06:19:15;;;;;;;31.55;27.83;;;;;;;13.68;100.00;97898.69;5027839;28;20040;-68
2023/10/20 06:21:42;;;;;;;33.13;26.92;;;;;;;13.66;100.00;97914.16;5021516;28;20033;-68
2023/10/20 06:24:08;;;;;;;31.83;27.63;;;;;;;13.67;100.00;97913.09;5025051;28;20034;-69
2023/10/20 06:26:34;;;;;;;32.95;27.58;;;;;;;13.64;100.00;97911.75;5015171;28;20364;-68
2023/10/20 06:28:59;;;;;;;30.83;26.95;;;;;;;13.66;100.00;97925.63;5026393;28;20033;-68
2023/10/20 06:36:48;;;;;;;34.63;26.05;;;;;;;13.65;100.00;97902.69;5009064;28;20107;-68
2023/10/20 06:39:15;;;;;;;31.35;27.25;;;;;;;13.61;100.00;97899.75;5013669;28;20076;-68
2023/10/20 06:41:41;;;;;;;31.20;26.27;;;;;;;13.62;100.00;97906.69;5028946;28;20033;-68
2023/10/20 06:44:06;;;;;;;33.80;27.20;;;;;;;13.61;100.00;97910.41;5016749;28;20022;-69
2023/10/20 06:46:31;;;;;;;29.27;25.65;;;;;;;13.62;100.00;97905.88;5022357;28;20033;-68
2023/10/20 06:48:57;;;;;;;32.55;27.52;;;;;;;13.59;100.00;97901.06;5018465;28;20037;-69
2023/10/20 06:51:23;;;;;;;30.45;25.92;;;;;;;13.60;100.00;97903.47;5012789;28;20022;-68
2023/10/20 06:53:49;;;;;;;32.45;27.02;;;;;;;13.61;100.00;97896.28;5023775;28;20025;-69
2023/10/20 06:56:14;;;;;;;29.23;24.80;;;;;;;13.57;100.00;97890.63;5024570;28;20044;-69
2023/10/20 06:58:39;;;;;;;30.33;23.70;;;;;;;13.59;100.00;97896.53;5023506;28;20436;-69
2023/10/20 07:01:08;;;;;;;27.05;22.42;;;;;;;13.58;100.00;97894.91;5013282;28;20045;-69
2023/10/20 07:03:33;;;;;;;28.63;22.93;;;;;;;13.56;100.00;97890.91;5016687;28;20025;-69
2023/10/20 07:06:00;;;;;;;27.42;22.25;;;;;;;13.54;100.00;97893.03;5018833;28;20264;-69
2023/10/20 07:08:25;;;;;;;27.90;21.98;;;;;;;13.53;100.00;97880.75;5014475;28;20053;-69
2023/10/20 07:10:51;;;;;;;24.67;20.60;;;;;;;13.50;100.00;97874.09;5011182;28;20471;-69
2023/10/20 07:13:17;;;;;;;25.65;21.55;;;;;;;13.45;100.00;97883.94;5017795;28;20022;-69
2023/10/20 07:15:43;;;;;;;28.48;22.15;;;;;;;13.44;100.00;97879.69;5021991;28;20036;-69
2023/10/20 07:18:11;;;;;;;30.75;23.60;;;;;;;13.43;100.00;97886.06;5027624;28;20022;-69
2023/10/20 07:20:38;;;;;;;27.38;20.92;;;;;;;13.42;100.00;97887.13;5020304;28;20021;-69
2023/10/20 07:23:05;;;;;;;25.63;19.98;;;;;;;13.32;100.00;97874.56;5012557;28;20022;-69
2023/10/20 07:25:30;;;;;;;25.73;19.98;;;;;;;13.36;100.00;97883.66;5018207;28;20025;-69
2023/10/20 07:27:57;;;;;;;30.83;22.20;;;;;;;13.34;100.00;97875.13;5014721;28;20026;-69
2023/10/20 07:30:23;;;;;;;27.40;20.35;;;;;;;13.28;100.00;97868.13;5027429;28;20067;-69
2023/10/20 07:32:51;;;;;;;26.33;19.80;;;;;;;13.26;100.00;97876.41;5018390;28;20045;-69
2023/10/20 07:35:16;;;;;;;24.02;17.73;;;;;;;13.22;100.00;97872.66;5028195;28;20074;-69
2023/10/20 07:37:43;;;;;;;23.30;17.48;;;;;;;13.18;100.00;97873.44;5015976;28;20109;-69
2023/10/20 07:40:09;;;;;;;21.65;16.10;;;;;;;13.22;100.00;97885.97;5018929;28;20604;-69
2023/10/20 07:42:35;;;;;;;28.02;19.02;;;;;;;13.18;100.00;97879.56;5029976;28;20060;-69
2023/10/20 07:45:00;;;;;;;26.65;18.02;;;;;;;13.18;100.00;97882.22;5027144;28;20068;-69
2023/10/20 07:47:26;;;;;;;29.85;20.33;;;;;;;13.16;100.00;97881.66;5019005;28;20067;-68
2023/10/20 07:49:52;;;;;;;22.98;17.13;;;;;;;13.14;100.00;97869.66;5036804;28;20032;-69
2023/10/20 07:52:17;;;;;;;20.20;15.25;;;;;;;13.13;100.00;97873.38;5013518;28;20471;-69
2023/10/20 07:54:43;;;;;;;22.88;17.35;;;;;;;13.10;100.00;97871.25;5017428;28;20029;-69
2023/10/20 07:57:10;;;;;;;19.98;14.70;;;;;;;13.09;100.00;97869.66;5011442;28;20426;-69
2023/10/20 07:59:35;;;;;;;21.60;16.13;;;;;;;13.06;100.00;97859.50;5028248;28;20020;-69
2023/10/20 08:02:00;;;;;;;19.02;14.13;;;;;;;13.03;100.00;97869.63;5017119;28;20398;-69
2023/10/20 08:04:26;;;;;;;16.90;13.43;;;;;;;13.02;100.00;97859.22;5033718;28;20025;-69
2023/10/20 08:06:54;;;;;;;21.65;15.02;;;;;;;13.00;100.00;97848.81;5030236;28;20021;-69
2023/10/20 08:09:20;;;;;;;20.77;14.80;;;;;;;12.97;100.00;97845.88;5030231;28;20022;-69
2023/10/20 08:11:45;;;;;;;19.05;13.98;;;;;;;12.96;100.00;97841.59;5024410;28;20047;-69
2023/10/20 08:14:11;;;;;;;20.55;14.32;;;;;;;12.92;100.00;97840.50;5021418;28;20025;-69
2023/10/20 08:16:37;;;;;;;19.20;12.98;;;;;;;12.90;100.00;97845.31;5025778;28;20406;-69
2023/10/20 08:19:02;;;;;;;19.55;13.85;;;;;;;12.86;100.00;97842.34;5024364;28;20030;-69
2023/10/20 08:21:29;;;;;;;17.90;13.07;;;;;;;12.84;100.00;97849.00;5014230;28;20018;-69
2023/10/20 08:23:55;;;;;;;18.23;12.50;;;;;;;12.83;100.00;97850.06;5029030;28;20033;-69
2023/10/20 08:26:21;;;;;;;16.67;12.48;;;;;;;12.78;100.00;97852.69;5014343;28;20018;-69
2023/10/20 08:28:49;;;;;;;17.95;13.15;;;;;;;12.76;100.00;97841.50;5030535;28;20022;-69
2023/10/20 08:31:16;;;;;;;16.27;11.50;;;;;;;12.72;100.00;97838.53;5018367;28;20026;-69
2023/10/20 08:33:42;;;;;;;16.80;11.90;;;;;;;12.73;100.00;97839.38;5019617;28;20026;-69
2023/10/20 08:36:13;;;;;;;13.13;10.15;;;;;;;12.65;100.00;97840.63;5014070;28;20458;-69
2023/10/20 08:38:39;;;;;;;12.95;10.05;;;;;;;12.66;100.00;97844.91;5026328;28;20021;-69
2023/10/20 08:41:16;;;;;;;11.65;9.32;;;;;;;12.64;100.00;97858.47;5017893;28;20475;-69
2023/10/20 08:43:42;;;;;;;13.60;10.02;;;;;;;12.62;100.00;97847.28;5016237;28;20041;-69
2023/10/20 08:46:10;;;;;;;12.07;9.10;;;;;;;12.55;100.00;97841.38;5011981;28;20022;-69
2023/10/20 08:48:39;;;;;;;9.93;8.40;;;;;;;12.55;100.00;97836.06;5019441;28;20476;-69
2023/10/20 08:51:05;;;;;;;10.57;8.48;;;;;;;12.52;100.00;97830.44;5011754;28;20017;-69
2023/10/20 08:53:36;;;;;;;11.10;8.40;;;;;;;12.52;100.00;97838.44;5014134;28;20029;-69
2023/10/20 08:56:06;;;;;;;10.85;8.52;;;;;;;12.45;100.00;97841.31;5015150;28;20029;-69
2023/10/20 08:58:32;;;;;;;9.98;7.20;;;;;;;12.44;100.00;97839.72;5018479;28;20025;-69
2023/10/20 09:00:57;;;;;;;8.52;7.28;;;;;;;12.37;100.00;97837.25;5015860;28;20514;-70
2023/10/20 09:03:25;;;;;;;7.10;6.15;;;;;;;12.38;100.00;97848.69;5026280;28;20029;-70
2023/10/20 09:05:52;;;;;;;7.85;6.00;;;;;;;12.38;100.00;97848.69;5026580;28;20026;-70
2023/10/20 09:08:18;;;;;;;6.90;6.07;;;;;;;12.30;100.00;97838.53;5016134;28;20391;-70
2023/10/20 09:10:45;;;;;;;8.57;5.95;;;;;;;12.31;100.00;97840.13;5020360;28;20024;-69
2023/10/20 09:13:11;;;;;;;7.15;5.75;;;;;;;12.28;100.00;97848.63;5031002;28;20017;-70
2023/10/20 09:15:37;;;;;;;6.90;4.90;;;;;;;12.23;100.00;97843.28;5026179;28;20403;-69
2023/10/20 09:18:03;;;;;;;6.28;4.40;;;;;;;12.22;100.00;97839.03;5031606;28;20025;-69
2023/10/20 09:20:28;;;;;;;5.85;4.55;;;;;;;12.18;100.00;97848.56;5021348;28;20529;-70
2023/10/20 09:22:54;;;;;;;5.28;4.45;;;;;;;12.14;100.00;97837.59;5026709;28;20539;-70
2023/10/20 09:25:19;;;;;;;5.85;4.05;;;;;;;12.12;100.00;97839.72;5022528;28;20108;-69
2023/10/20 09:27:46;;;;;;;6.47;3.85;;;;;;;12.12;100.00;97828.28;5019809;28;20576;-69
2023/10/20 09:30:14;;;;;;;4.75;3.88;;;;;;;12.10;100.00;97816.03;5017645;28;20293;-69
2023/10/20 09:32:39;;;;;;;6.85;4.90;;;;;;;12.09;100.00;97818.94;5020305;28;20025;-70
2023/10/20 09:35:05;;;;;;;4.07;3.60;;;;;;;12.08;100.00;97817.34;5018351;28;20041;-70
2023/10/20 09:37:31;;;;;;;4.53;3.28;;;;;;;12.05;100.00;97823.97;5028822;28;20469;-70
2023/10/20 09:40:05;;;;;;;7.35;4.95;;;;;;;12.07;100.00;97826.38;5032818;28;20017;-70
2023/10/20 09:42:41;;;;;;;4.40;3.85;;;;;;;12.08;100.00;97820.81;5023932;28;20021;-70
2023/10/20 09:45:14;;;;;;;6.95;5.30;;;;;;;12.02;100.00;97821.81;5021283;28;20039;-70
2023/10/20 09:47:43;;;;;;;6.00;3.50;;;;;;;12.04;100.00;97827.69;5015346;28;20037;-70
2023/10/20 09:50:11;;;;;;;7.65;3.95;;;;;;;12.02;100.00;97819.16;5016129;28;20057;-68
2023/10/20 09:52:40;;;;;;;9.23;4.38;;;;;;;12.03;100.00;97826.09;5015293;28;20112;-70
2023/10/20 09:55:07;;;;;;;7.47;4.80;;;;;;;11.94;100.00;97808.22;5013146;28;20061;-70
2023/10/20 09:57:33;;;;;;;5.80;4.35;;;;;;;11.95;100.00;97807.16;5022233;28;20114;-70
2023/10/20 10:00:03;;;;;;;4.25;2.65;;;;;;;12.00;100.00;97821.28;5020346;28;20534;-70
2023/10/20 10:02:31;;;;;;;2.70;2.50;;;;;;;11.95;100.00;97810.59;5019647;28;20049;-70
2023/10/20 10:04:57;;;;;;;3.15;2.85;;;;;;;11.94;100.00;97819.66;5018433;28;20029;-70
2023/10/20 10:07:28;;;;;;;3.63;3.20;;;;;;;11.86;100.00;97798.03;5027032;28;20040;-71
2023/10/20 10:09:55;;;;;;;3.63;2.92;;;;;;;11.84;100.00;97806.25;5016385;28;20030;-71
2023/10/20 10:12:21;;;;;;;3.88;2.55;;;;;;;11.87;100.00;97808.41;5021932;28;20068;-70
2023/10/20 10:14:59;;;;;;;3.13;2.30;;;;;;;11.83;100.00;97807.28;5020295;28;20109;-70
2023/10/20 10:17:28;;;;;;;2.65;2.08;;;;;;;11.85;100.00;97807.84;5019642;28;20064;-71
2023/10/20 10:19:56;;;;;;;2.50;2.30;;;;;;;11.85;100.00;97797.22;5019581;28;20029;-71
2023/10/20 10:22:29;;;;;;;2.30;2.10;;;;;;;11.82;100.00;97787.09;5020707;28;20113;-71
2023/10/20 10:24:56;;;;;;;6.15;2.50;;;;;;;11.89;100.00;97808.16;5017922;28;20017;-70
2023/10/20 10:27:26;;;;;;;2.90;2.65;;;;;;;11.88;100.00;97788.75;5024785;28;20037;-70
2023/10/20 10:30:05;;;;;;;3.08;2.80;;;;;;;11.91;100.00;97769.63;5020339;28;20061;-71
2023/10/20 10:32:33;;;;;;;2.72;2.45;;;;;;;11.88;100.00;97782.63;5020016;28;20028;-70
2023/10/20 10:35:00;;;;;;;2.60;2.40;;;;;;;11.89;100.00;97786.91;5013018;28;20121;-71
2023/10/20 10:37:34;;;;;;;2.90;2.45;;;;;;;11.91;100.00;97785.59;5017076;28;20025;-70
2023/10/20 10:40:13;;;;;;;2.83;2.63;;;;;;;11.90;100.00;97773.34;5017875;28;20022;-70
2023/10/20 10:42:45;;;;;;;3.53;3.10;;;;;;;11.75;100.00;97750.06;5023349;28;20025;-71
2023/10/20 10:45:17;;;;;;;3.20;3.00;;;;;;;11.88;100.00;97779.97;5022458;28;20507;-70
2023/10/20 10:47:43;;;;;;;3.40;3.10;;;;;;;11.91;100.00;97766.16;5019645;28;20033;-70
2023/10/20 10:50:08;;;;;;;4.68;3.17;;;;;;;11.84;100.00;97746.94;5026140;28;20076;-70
2023/10/20 10:52:34;;;;;;;4.90;4.50;;;;;;;11.88;100.00;97751.53;5020179;28;20037;-70
2023/10/20 10:54:59;;;;;;;5.75;5.25;;;;;;;11.91;100.00;97748.34;5022408;28;20024;-70
2023/10/20 10:57:25;;;;;;;5.20;4.70;;;;;;;11.90;100.00;97751.28;5009439;28;20026;-70
2023/10/20 10:59:50;;;;;;;7.45;6.50;;;;;;;11.86;100.00;97737.69;5016842;28;20449;-69
2023/10/20 11:02:16;;;;;;;8.40;7.00;;;;;;;11.88;100.00;97745.41;5019525;28;20034;-70
2023/10/20 11:04:42;;;;;;;7.28;6.40;;;;;;;11.86;100.00;97740.34;5017585;28;20044;-69
2023/10/20 11:07:07;;;;;;;7.75;6.20;;;;;;;11.87;100.00;97733.97;5023962;28;20167;-70
2023/10/20 11:09:33;;;;;;;8.40;5.05;;;;;;;11.87;100.00;97736.63;5018109;28;20051;-69
2023/10/20 11:11:58;;;;;;;6.53;4.60;;;;;;;11.87;100.00;97723.34;5017577;28;20030;-69
2023/10/20 11:14:24;;;;;;;7.40;4.80;;;;;;;11.90;100.00;97722.03;5028965;28;20030;-69
2023/10/20 11:16:50;;;;;;;11.57;6.13;;;;;;;11.90;100.00;97708.72;5020173;28;20112;-69
2023/10/20 11:19:17;;;;;;;8.55;6.20;;;;;;;11.95;100.00;97714.88;5012898;28;20136;-69
2023/10/20 11:21:47;;;;;;;3.42;3.13;;;;;;;11.94;100.00;97713.28;5019391;28;20041;-69
2023/10/20 11:24:24;;;;;;;4.40;4.00;;;;;;;11.99;100.00;97710.63;5025900;28;20797;-70
2023/10/20 11:26:57;;;;;;;4.47;4.07;;;;;;;11.99;100.00;97702.66;5021871;28;20028;-70
2023/10/20 11:29:24;;;;;;;4.00;3.60;;;;;;;11.90;100.00;97695.44;5018759;28;20107;-70
2023/10/20 11:31:49;;;;;;;4.20;3.85;;;;;;;11.97;100.00;97707.44;5025805;28;20030;-70
2023/10/20 11:34:15;;;;;;;6.00;4.28;;;;;;;11.99;100.00;97712.50;5020190;28;20403;-69
2023/10/20 11:36:40;;;;;;;3.90;3.60;;;;;;;12.00;100.00;97696.28;5020775;28;20195;-70
2023/10/20 11:39:06;;;;;;;5.53;4.93;;;;;;;12.03;100.00;97702.94;5016691;28;20026;-69
2023/10/20 11:41:32;;;;;;;6.53;5.50;;;;;;;12.02;100.00;97699.50;5030040;28;20095;-69
2023/10/20 11:43:57;;;;;;;8.65;6.90;;;;;;;12.03;100.00;97692.31;5024386;28;20029;-69
2023/10/20 11:46:22;;;;;;;7.82;6.60;;;;;;;12.06;100.00;97694.44;5022444;28;20033;-69